North Lakhimpur Airport
VELR : now visible

Airfield :











YOU CAN JOIN US ON...

 
LOGIN :

Register | Disclaimer

   EN    FR    IT 

 









Legend :    VFR   Marginal VFR   IFR   Intensive IFR   Very Intensive IFR
Visi :
Ceiling :
>= 8 km
>= 3000ft
5 to 8 km
1000 to 3000 ft
1500m to 5 km
500 to 1000 ft
800 to 1500m
200 to 500 ft
< 800m
< 200 ft
Symbols :   Thunderstorms  Fog  Heavy snow  Heavy precipitations  Wind > 20 kt






- Airport Elevation : 330 ft
- IATA code : IXI


VELR - North Lakhimpur

CURRENT METAR :
  • 081200Z 05004KT 5000 HZ FEW018 BKN100 26/16 Q1009

EXPIRED METARs :
  • 081100Z 08003KT 5000 HZ FEW020 BKN100 26/16 Q1009
  • 081000Z 04008KT 5000 HZ FEW018 BKN100 28/17 Q1009

TAF TAF VELR
Valid from the 08 at 09:00 until the 08 at 18:00 UTC


080800Z 0809/0818 06006KT 5000 HZ SCT018 BKN100 BCMG 0813/0815 00000KT 3000 HZ



MET'MAP, your aeronautical weather chart ! - Copyright ORBIFLY December 2007 - Disclaimer

ORBIFLY MET'MAP TEAM :

Programming & Development : Alexandra Zaïnal
Concept & original design : Baudouin d'Aumeries
Assistance for programming : Marc-Olivier Méhu
Technical & hardware support : Manuel Goepfert

Contact : metmap@orbifly.com




SOURCES & CREDITS :

   NOAA       Earth
Advisory